Clayton Center, Iowa
Current Conditions -  °F | °C
As of 10:15 AM on Wednesday 26 Nov 2014 (Local Time) from KPDC Reporting Station
Overcast Overcast  
Wind Chill: 15°   Ceiling: 9000
Heat Index: 23°   Visibility: 7mi
Dew Point: 18°   Wind: 7mph
Humidity: 82%   Direction: 100°E
Pressure: 30.11"   Gusts: NA
Location:  42.8388°N, 91.4421°W
Report Text: KPDC 261615Z AUTO 10006KT 7SM OVC090 M05/M08 A3011 RMK AO2 T10511077
Loading
Personal Weather Stations






























Interactive Weather Map New forecast layout! Learn more

10-Day Weather Forecast

Advertisements
Track Severe Weather on mobile